Austin, Texas
Traffic Map
Current Weather Conditions
Austin, Texas
Clear
Clear
82°
Feels Like: 87°
Wind Chill: 82° Ceiling: Unl
Heat Index: 87° Visibility: 10mi
Dew Point: 73° Wind: 3mph
Humidity: 74% Direction: 180° (S)
Pressure: 30.08in Gusts: 0mph
Raw Report DataKATT 221451Z AUTO 18003KT 10SM CLR 28/23 A3008 RMK AO2 SLP169 T02780228 50002
Traffic Incident Summary
Active as of:
Severity:
Category:
InformationThere was an issue retrieving the traffic information for this location. Please try a different location or try again shortly.
Advertisements
Track Severe Weather on mobile